Time;durP1;ratioP1;P1;durP2;ratioP2;P2;SDS_P1;SDS_P2;PMS_P1;PMS_P2;Temp;Humidity;BMP_temperature;BMP_pressure;BME280_temperature;BME280_humidity;BME280_pressure;Samples;Min_cycle;Max_cycle;Signal;HPM_P1;HPM_P2
2023/03/04 00:00:55;;;;;;;26.55;10.68;;;;;;;8.26;40.44;98681.50;4471902;32;20076;-89
2023/03/04 00:03:20;;;;;;;23.27;9.98;;;;;;;7.83;41.31;98682.66;4471732;32;20119;-88
2023/03/04 00:05:46;;;;;;;24.33;9.48;;;;;;;7.55;41.87;98690.87;4471996;32;20089;-89
2023/03/04 00:08:11;;;;;;;26.67;10.25;;;;;;;7.32;41.99;98687.50;4471882;32;20190;-88
2023/03/04 00:10:37;;;;;;;23.85;9.93;;;;;;;7.21;42.03;98689.72;4471950;32;20080;-89
2023/03/04 00:13:02;;;;;;;23.98;9.85;;;;;;;7.61;41.25;98685.38;4457667;32;20101;-89
2023/03/04 00:15:28;;;;;;;24.10;9.43;;;;;;;7.31;41.39;98692.81;4471834;32;20077;-89
2023/03/04 00:17:53;;;;;;;24.52;9.43;;;;;;;7.29;41.37;98685.00;4472094;32;20107;-89
2023/03/04 00:20:19;;;;;;;24.65;9.63;;;;;;;7.22;41.32;98689.69;4472033;32;20155;-89
2023/03/04 00:22:44;;;;;;;25.12;9.48;;;;;;;7.02;41.50;98692.28;4472161;32;20089;-89
2023/03/04 00:25:09;;;;;;;23.60;9.52;;;;;;;6.57;42.75;98695.84;4472044;32;20111;-89
2023/03/04 00:27:35;;;;;;;21.45;8.80;;;;;;;7.17;41.50;98686.38;4471990;32;20081;-88
2023/03/04 00:30:00;;;;;;;24.10;9.35;;;;;;;6.83;41.68;98689.56;4472006;32;20084;-89
2023/03/04 00:32:25;;;;;;;19.33;8.48;;;;;;;6.84;41.26;98683.41;4471910;32;20187;-88
2023/03/04 00:34:51;;;;;;;24.00;8.65;;;;;;;6.36;41.94;98681.84;4457814;32;20453;-87
2023/03/04 00:37:16;;;;;;;23.38;9.00;;;;;;;6.67;41.50;98678.84;4472071;32;20084;-88
2023/03/04 00:39:42;;;;;;;23.95;8.80;;;;;;;6.75;40.67;98676.78;4471769;32;20148;-88
2023/03/04 00:42:07;;;;;;;21.65;7.93;;;;;;;6.49;41.01;98683.06;4471726;32;20124;-88
2023/03/04 00:44:33;;;;;;;21.20;8.32;;;;;;;6.56;40.90;98691.53;4471962;32;20130;-88
2023/03/04 00:46:58;;;;;;;22.58;8.75;;;;;;;6.25;41.08;98685.72;4471854;32;20110;-88
2023/03/04 00:49:24;;;;;;;20.75;7.55;;;;;;;6.48;40.43;98686.59;4471623;32;20065;-88
2023/03/04 00:51:49;;;;;;;20.98;8.23;;;;;;;6.34;40.58;98676.66;4471703;32;20105;-88
2023/03/04 00:54:14;;;;;;;19.10;7.70;;;;;;;6.66;39.66;98672.78;4471608;32;20133;-88
2023/03/04 00:56:40;;;;;;;21.52;8.13;;;;;;;6.90;39.70;98677.91;4457447;32;20092;-88
2023/03/04 00:59:05;;;;;;;19.92;7.18;;;;;;;6.60;39.23;98667.78;4471597;32;20089;-86
2023/03/04 01:01:31;;;;;;;17.70;6.62;;;;;;;6.42;39.20;98668.53;4471571;32;20156;-87
2023/03/04 01:03:56;;;;;;;19.77;6.87;;;;;;;6.53;38.69;98674.19;4471483;32;20084;-87
2023/03/04 01:06:21;;;;;;;18.45;6.32;;;;;;;6.54;38.10;98662.78;4457410;32;20088;-86
2023/03/04 01:08:47;;;;;;;18.27;5.87;;;;;;;6.46;37.88;98657.00;4471535;32;20084;-87
2023/03/04 01:11:13;;;;;;;18.80;6.72;;;;;;;6.20;38.43;98658.03;4471571;32;20504;-86
2023/03/04 01:13:39;;;;;;;16.65;5.70;;;;;;;6.19;38.33;98654.56;4471628;32;20387;-87
2023/03/04 01:16:05;;;;;;;15.23;5.57;;;;;;;6.33;38.16;98650.56;4471579;32;20081;-88
2023/03/04 01:18:30;;;;;;;15.50;5.82;;;;;;;6.37;38.05;98652.13;4471345;32;20152;-87
2023/03/04 01:20:56;;;;;;;18.25;6.43;;;;;;;6.27;37.79;98651.66;4471360;32;20117;-88
2023/03/04 01:23:21;;;;;;;14.98;5.75;;;;;;;6.42;37.70;98643.19;4457361;32;20085;-87
2023/03/04 01:25:47;;;;;;;16.30;5.45;;;;;;;6.17;37.74;98650.31;4471234;32;20135;-87
2023/03/04 01:28:13;;;;;;;15.23;5.00;;;;;;;6.13;37.67;98649.59;4471418;32;20227;-88
2023/03/04 01:30:38;;;;;;;12.82;3.85;;;;;;;6.15;37.23;98646.91;4471354;32;20120;-87
2023/03/04 01:33:04;;;;;;;12.80;3.78;;;;;;;6.09;34.59;98640.16;4457205;32;20357;-87
2023/03/04 01:35:29;;;;;;;10.40;3.05;;;;;;;6.51;34.06;98631.53;4471194;32;20403;-88
2023/03/04 01:37:54;;;;;;;11.43;3.08;;;;;;;6.66;33.12;98636.13;4471217;32;20088;-87
2023/03/04 01:40:20;;;;;;;10.63;3.40;;;;;;;6.66;32.94;98633.50;4471266;32;20089;-87
2023/03/04 01:42:45;;;;;;;10.65;3.28;;;;;;;6.85;32.99;98632.72;4471334;32;20089;-87
2023/03/04 01:45:17;;;;;;;14.07;4.50;;;;;;;6.51;33.55;98631.53;4457101;32;20084;-88
2023/03/04 01:47:47;;;;;;;11.10;3.00;;;;;;;6.20;34.17;98635.38;4457186;32;20076;-88
2023/03/04 01:50:21;;;;;;;11.25;3.08;;;;;;;6.70;33.54;98631.59;4457487;32;20093;-88
2023/03/04 01:52:46;;;;;;;11.07;3.22;;;;;;;6.24;33.89;98620.41;4456462;32;20105;-88
2023/03/04 01:55:17;;;;;;;12.10;3.05;;;;;;;6.71;33.31;98620.22;4471192;32;20137;-88
2023/03/04 01:57:43;;;;;;;12.52;3.67;;;;;;;6.60;33.33;98615.41;4471179;32;20100;-88
2023/03/04 02:00:31;;;;;;;12.88;3.95;;;;;;;6.32;34.06;98613.09;4471105;32;20084;-88
2023/03/04 02:03:06;;;;;;;9.65;2.80;;;;;;;6.47;33.87;98611.59;4470980;32;20096;-87
2023/03/04 02:05:31;;;;;;;12.27;3.37;;;;;;;6.61;33.49;98604.06;4471181;32;20093;-88
2023/03/04 02:07:57;;;;;;;12.07;3.47;;;;;;;6.83;33.23;98598.75;4456774;32;20107;-88
2023/03/04 02:10:23;;;;;;;10.52;3.22;;;;;;;6.74;32.83;98599.16;4470900;32;20158;-88
2023/03/04 02:12:49;;;;;;;11.77;3.10;;;;;;;6.72;33.00;98607.97;4457084;32;20140;-88
2023/03/04 02:15:15;;;;;;;9.98;2.65;;;;;;;6.85;32.62;98596.91;4470996;32;20111;-88
2023/03/04 02:17:41;;;;;;;10.63;3.12;;;;;;;7.03;32.46;98595.31;4443562;32;20432;-88
2023/03/04 02:20:09;;;;;;;11.32;3.50;;;;;;;6.72;33.10;98589.66;4470776;32;20085;-88
2023/03/04 02:22:39;;;;;;;9.75;2.85;;;;;;;6.45;33.38;98596.00;4470984;32;20084;-87
2023/03/04 02:25:17;;;;;;;12.13;3.10;;;;;;;6.56;33.42;98590.28;4456714;32;20111;-88
2023/03/04 02:27:42;;;;;;;12.25;3.47;;;;;;;6.50;33.35;98582.69;4456585;32;20092;-88
2023/03/04 02:30:10;;;;;;;12.35;3.78;;;;;;;6.43;33.85;98581.25;4456567;32;20096;-87
2023/03/04 02:32:36;;;;;;;12.75;3.42;;;;;;;6.42;33.50;98574.31;4456500;32;20503;-86
2023/03/04 02:35:01;;;;;;;12.75;3.72;;;;;;;6.63;32.99;98577.81;4470657;32;20081;-86
2023/03/04 02:37:27;;;;;;;11.35;3.22;;;;;;;6.00;34.21;98573.34;4470599;32;20103;-86
2023/03/04 02:39:52;;;;;;;11.43;3.17;;;;;;;6.17;33.29;98572.69;4456376;32;20151;-86
2023/03/04 02:42:17;;;;;;;12.07;3.10;;;;;;;6.34;33.35;98579.03;4456419;32;20123;-86
2023/03/04 02:44:47;;;;;;;11.18;3.10;;;;;;;6.51;33.16;98571.34;4470558;32;20081;-86
2023/03/04 02:47:16;;;;;;;11.18;3.20;;;;;;;6.56;33.21;98569.34;4470459;32;20446;-86
2023/03/04 02:49:42;;;;;;;11.38;3.37;;;;;;;6.68;33.09;98565.38;4470462;32;20092;-85
2023/03/04 02:52:17;;;;;;;11.25;3.97;;;;;;;6.60;32.73;98562.22;4456232;32;20122;-86
2023/03/04 02:54:42;;;;;;;11.57;3.08;;;;;;;6.34;33.70;98560.72;4470471;32;20168;-86
2023/03/04 02:57:10;;;;;;;9.75;2.90;;;;;;;6.46;33.35;98558.41;4470282;32;20103;-89
2023/03/04 02:59:36;;;;;;;13.15;3.90;;;;;;;6.10;34.27;98560.75;4470203;32;20124;-88
2023/03/04 03:02:02;;;;;;;11.30;3.60;;;;;;;5.91;34.41;98558.03;4470367;32;20745;-89
2023/03/04 03:04:27;;;;;;;14.80;4.53;;;;;;;6.50;33.96;98560.00;4470159;32;20111;-88
2023/03/04 03:06:53;;;;;;;14.27;3.60;;;;;;;6.32;34.21;98558.16;4457990;32;20122;-87
2023/03/04 03:09:19;;;;;;;12.82;3.75;;;;;;;6.08;34.75;98557.38;4458212;32;20109;-88
2023/03/04 03:11:45;;;;;;;13.62;4.15;;;;;;;6.68;34.26;98563.62;4472367;32;20084;-87
2023/03/04 03:14:10;;;;;;;15.68;4.00;;;;;;;6.21;34.95;98560.34;4472425;32;20102;-87
2023/03/04 03:16:35;;;;;;;12.98;4.28;;;;;;;6.03;35.71;98554.94;4472291;32;20089;-85
2023/03/04 03:19:01;;;;;;;15.10;4.20;;;;;;;5.98;35.93;98550.81;4472249;32;20394;-85
2023/03/04 03:21:26;;;;;;;17.08;5.07;;;;;;;6.25;35.58;98554.91;4472213;32;20129;-85
2023/03/04 03:23:52;;;;;;;13.20;4.28;;;;;;;6.16;35.56;98550.09;4472173;32;20084;-83
2023/03/04 03:26:18;;;;;;;14.63;4.87;;;;;;;6.27;35.78;98545.25;4472254;32;20148;-83
2023/03/04 03:28:43;;;;;;;14.25;4.53;;;;;;;6.30;35.89;98539.91;4458055;32;20780;-83
2023/03/04 03:31:09;;;;;;;16.52;4.53;;;;;;;5.68;36.74;98544.09;4472207;32;20159;-83
2023/03/04 03:33:34;;;;;;;13.95;4.53;;;;;;;6.10;36.65;98539.84;4472273;32;20383;-83
2023/03/04 03:36:00;;;;;;;14.45;4.43;;;;;;;6.13;36.45;98531.88;4472189;32;20111;-86
2023/03/04 03:38:25;;;;;;;14.45;4.30;;;;;;;6.29;36.29;98532.94;4472301;32;20437;-86
2023/03/04 03:40:51;;;;;;;15.95;4.95;;;;;;;6.10;36.63;98532.88;4472304;32;20427;-86
2023/03/04 03:43:16;;;;;;;13.62;4.22;;;;;;;5.91;37.00;98540.56;4472133;32;20354;-88
2023/03/04 03:45:42;;;;;;;15.77;5.03;;;;;;;5.54;37.87;98529.84;4472054;32;20446;-87
2023/03/04 03:48:07;;;;;;;15.00;4.57;;;;;;;5.69;37.71;98529.25;4472044;32;20073;-87
2023/03/04 03:50:33;;;;;;;15.55;4.72;;;;;;;5.87;37.58;98532.88;4472057;32;20115;-87
2023/03/04 03:52:58;;;;;;;17.45;4.85;;;;;;;6.01;37.22;98522.78;4472159;32;20476;-88
2023/03/04 03:55:24;;;;;;;17.52;5.20;;;;;;;5.54;38.38;98532.44;4457868;32;20127;-88
2023/03/04 03:57:49;;;;;;;15.00;5.35;;;;;;;5.94;37.73;98525.66;4472202;32;20121;-88
2023/03/04 04:00:15;;;;;;;15.30;5.45;;;;;;;5.87;38.03;98533.75;4457883;32;20092;-88
2023/03/04 04:02:41;;;;;;;15.65;5.03;;;;;;;6.06;37.67;98526.03;4471870;32;20119;-87
2023/03/04 04:05:07;;;;;;;15.98;5.18;;;;;;;6.28;37.12;98525.19;4472239;32;20080;-86
2023/03/04 04:07:33;;;;;;;16.45;5.03;;;;;;;5.91;37.86;98535.34;4472223;32;20096;-86
2023/03/04 04:09:58;;;;;;;15.00;4.72;;;;;;;5.85;38.38;98532.09;4472286;32;20395;-86
2023/03/04 04:12:24;;;;;;;18.17;5.55;;;;;;;5.94;38.11;98529.13;4457942;32;20088;-86
2023/03/04 04:14:49;;;;;;;15.40;5.18;;;;;;;5.72;38.80;98527.38;4472148;32;20088;-84
2023/03/04 04:17:15;;;;;;;15.23;5.53;;;;;;;5.70;38.85;98526.56;4471718;32;20425;-84
2023/03/04 04:19:40;;;;;;;18.92;5.97;;;;;;;5.77;38.96;98531.56;4472000;32;20088;-84
2023/03/04 04:22:14;;;;;;;18.30;6.30;;;;;;;4.96;40.73;98535.44;4457950;32;20142;-84
2023/03/04 04:24:40;;;;;;;18.42;6.07;;;;;;;4.77;41.51;98530.91;4471841;32;20103;-84
2023/03/04 04:27:05;;;;;;;16.48;5.70;;;;;;;4.63;42.05;98541.78;4471873;32;20096;-85
2023/03/04 04:29:31;;;;;;;19.20;5.75;;;;;;;4.39;42.87;98546.09;4471788;32;20123;-84
2023/03/04 04:31:57;;;;;;;20.67;6.43;;;;;;;4.23;43.47;98545.75;4471713;32;20461;-85
2023/03/04 04:34:22;;;;;;;19.48;6.18;;;;;;;4.21;44.36;98542.34;4471817;32;20081;-85
2023/03/04 04:36:47;;;;;;;19.48;6.40;;;;;;;4.39;44.20;98535.66;4471717;32;20089;-87
2023/03/04 04:39:13;;;;;;;17.77;5.43;;;;;;;4.29;44.23;98539.50;4471602;32;20134;-87
2023/03/04 04:41:41;;;;;;;19.87;7.37;;;;;;;3.95;45.26;98540.56;4471719;32;20080;-87
2023/03/04 04:44:07;;;;;;;16.37;6.35;;;;;;;4.41;44.52;98536.47;4457444;32;20133;-86
2023/03/04 04:46:32;;;;;;;16.87;6.15;;;;;;;4.49;44.50;98524.00;4471702;32;20162;-85
2023/03/04 04:48:58;;;;;;;19.75;6.68;;;;;;;4.34;44.87;98527.97;4471731;32;20136;-86
2023/03/04 04:51:24;;;;;;;18.75;6.53;;;;;;;4.44;44.96;98525.94;4471606;32;20114;-87
2023/03/04 04:53:49;;;;;;;17.62;6.37;;;;;;;4.17;46.01;98532.91;4471682;32;20237;-88
2023/03/04 04:56:20;;;;;;;19.25;6.47;;;;;;;4.41;45.95;98526.03;4471641;32;20153;-87
2023/03/04 04:58:46;;;;;;;18.05;5.85;;;;;;;4.50;46.19;98525.72;4471654;32;20080;-86
2023/03/04 05:01:12;;;;;;;18.20;5.82;;;;;;;4.60;46.11;98518.44;4471549;32;20542;-85
2023/03/04 05:03:38;;;;;;;21.50;6.15;;;;;;;4.21;47.26;98534.53;4457236;32;20103;-86
2023/03/04 05:06:06;;;;;;;20.23;6.62;;;;;;;4.18;47.77;98518.97;4471655;32;20146;-86
2023/03/04 05:08:31;;;;;;;17.92;5.82;;;;;;;4.02;48.54;98533.41;4471599;32;20115;-86
2023/03/04 05:10:57;;;;;;;17.02;5.93;;;;;;;3.95;48.64;98535.34;4471540;32;20089;-85
2023/03/04 05:13:22;;;;;;;18.73;5.93;;;;;;;3.81;49.07;98532.34;4471567;32;20134;-85
2023/03/04 05:15:51;;;;;;;20.37;7.15;;;;;;;3.85;48.79;98536.56;4455417;32;94054;-85
2023/03/04 05:18:16;;;;;;;17.40;5.70;;;;;;;3.93;48.66;98537.16;4470721;32;20084;-85
2023/03/04 05:20:42;;;;;;;17.62;5.55;;;;;;;3.80;48.92;98531.47;4471482;32;20146;-85
2023/03/04 05:23:07;;;;;;;18.25;6.20;;;;;;;3.65;49.25;98542.38;4471415;32;20115;-85
2023/03/04 05:25:33;;;;;;;19.27;5.87;;;;;;;4.17;47.97;98534.66;4457255;32;20444;-85
2023/03/04 05:28:00;;;;;;;16.92;6.07;;;;;;;4.07;47.93;98529.75;4470252;32;20151;-85
2023/03/04 05:30:26;;;;;;;20.00;6.65;;;;;;;3.87;48.67;98533.00;4457928;32;20219;-85
2023/03/04 05:32:51;;;;;;;21.75;7.45;;;;;;;4.10;48.40;98536.63;4471551;32;20092;-84
2023/03/04 05:35:17;;;;;;;20.12;6.32;;;;;;;4.41;47.49;98531.25;4471644;32;20092;-84
2023/03/04 05:37:42;;;;;;;19.95;6.22;;;;;;;4.08;48.08;98536.69;4471721;32;20096;-85
2023/03/04 05:40:08;;;;;;;20.08;7.40;;;;;;;4.41;47.56;98536.47;4471519;32;20077;-86
2023/03/04 05:42:34;;;;;;;20.88;6.62;;;;;;;4.19;48.23;98538.06;4471585;32;20080;-85
2023/03/04 05:44:59;;;;;;;21.10;7.28;;;;;;;4.12;48.45;98543.50;4471551;32;20185;-85
2023/03/04 05:47:24;;;;;;;19.95;7.10;;;;;;;4.20;48.38;98527.59;4471641;32;20085;-85
2023/03/04 05:49:50;;;;;;;18.70;7.30;;;;;;;4.07;48.78;98534.97;4457231;32;20092;-85
2023/03/04 05:52:15;;;;;;;20.77;7.32;;;;;;;4.28;48.37;98535.16;4471542;32;20077;-85
2023/03/04 05:54:41;;;;;;;20.90;7.32;;;;;;;4.29;47.72;98524.69;4471376;32;20092;-85
2023/03/04 05:57:06;;;;;;;18.60;6.57;;;;;;;5.09;46.08;98527.12;4471456;32;20111;-86
2023/03/04 05:59:31;;;;;;;19.62;6.97;;;;;;;5.34;45.10;98531.44;4471323;32;20081;-85
2023/03/04 06:01:57;;;;;;;20.30;7.43;;;;;;;5.27;45.02;98540.41;4471433;32;20089;-85
2023/03/04 06:04:22;;;;;;;18.30;7.00;;;;;;;4.89;45.81;98545.28;4444015;32;20108;-86
2023/03/04 06:06:48;;;;;;;21.10;7.60;;;;;;;5.55;44.52;98542.84;4471430;32;20088;-86
2023/03/04 06:09:14;;;;;;;19.65;7.85;;;;;;;5.53;44.16;98543.81;4471394;32;20088;-86
2023/03/04 06:11:39;;;;;;;19.65;6.87;;;;;;;5.51;44.06;98556.94;4471199;32;20450;-86
2023/03/04 06:14:04;;;;;;;19.98;6.87;;;;;;;5.94;42.98;98559.66;4471152;32;20612;-86
2023/03/04 06:16:30;;;;;;;19.77;6.65;;;;;;;6.48;42.07;98559.22;4471263;32;20392;-85
2023/03/04 06:18:56;;;;;;;22.95;7.40;;;;;;;6.42;42.05;98562.09;4456915;32;20119;-86
2023/03/04 06:21:21;;;;;;;20.50;7.70;;;;;;;6.56;42.29;98550.19;4471124;32;20111;-85
2023/03/04 06:23:46;;;;;;;20.80;7.97;;;;;;;6.70;41.99;98560.91;4470647;32;20501;-87
2023/03/04 06:26:14;;;;;;;21.00;8.63;;;;;;;7.24;41.63;98564.69;4470532;32;20414;-85
2023/03/04 06:28:40;;;;;;;21.92;7.68;;;;;;;7.25;40.79;98550.66;4470901;32;20515;-87
2023/03/04 06:31:06;;;;;;;21.05;8.60;;;;;;;6.37;43.31;98569.25;4470781;32;20103;-87
2023/03/04 06:33:32;;;;;;;22.87;7.93;;;;;;;6.92;43.20;98570.50;4470723;32;20093;-87
2023/03/04 06:35:57;;;;;;;21.83;7.95;;;;;;;7.47;42.22;98562.78;4470762;32;20122;-87
2023/03/04 06:38:23;;;;;;;23.52;8.65;;;;;;;7.64;41.10;98565.50;4470538;32;20482;-87
2023/03/04 06:40:49;;;;;;;22.50;8.15;;;;;;;7.61;41.61;98564.78;4458391;32;20364;-87
2023/03/04 06:43:14;;;;;;;20.77;8.23;;;;;;;7.77;41.32;98560.53;4472670;32;20140;-87
2023/03/04 06:45:40;;;;;;;23.48;7.87;;;;;;;7.83;40.82;98565.47;4458444;32;20153;-87
2023/03/04 06:48:05;;;;;;;21.70;7.55;;;;;;;7.90;40.94;98573.06;4472570;32;20084;-86
2023/03/04 06:50:31;;;;;;;20.62;8.23;;;;;;;7.73;40.52;98571.25;4458233;32;20414;-86
2023/03/04 06:52:56;;;;;;;20.15;8.18;;;;;;;7.39;41.22;98565.75;4472572;32;20141;-88
2023/03/04 06:55:22;;;;;;;22.42;8.00;;;;;;;7.28;41.18;98579.34;4472513;32;20110;-88
2023/03/04 06:57:47;;;;;;;21.95;8.43;;;;;;;7.88;40.14;98573.16;4458299;32;20108;-87
2023/03/04 07:00:13;;;;;;;23.92;9.38;;;;;;;7.20;40.69;98570.97;4472351;32;20451;-88
2023/03/04 07:02:39;;;;;;;22.37;8.57;;;;;;;8.02;39.79;98562.84;4472166;32;20109;-79
2023/03/04 07:05:05;;;;;;;25.05;9.07;;;;;;;7.44;39.93;98562.94;4472379;32;20153;-82
2023/03/04 07:07:30;;;;;;;23.40;9.25;;;;;;;7.80;40.95;98565.66;4458204;32;20169;-80
2023/03/04 07:09:55;;;;;;;25.95;9.10;;;;;;;7.59;40.41;98558.75;4458073;32;20126;-80
2023/03/04 07:12:21;;;;;;;22.52;8.55;;;;;;;8.12;39.79;98565.03;4458302;32;20100;-82
2023/03/04 07:14:46;;;;;;;21.73;8.65;;;;;;;7.99;39.46;98562.97;4472361;32;20235;-79
2023/03/04 07:17:14;;;;;;;23.40;8.77;;;;;;;8.14;38.92;98568.44;4457462;32;20134;-81
2023/03/04 07:19:40;;;;;;;;;;;;;;;7.64;39.26;98562.88;4471976;32;20081;-80
2023/03/04 07:22:06;;;;;;;20.33;7.40;;;;;;;7.59;38.59;98561.37;4465379;32;20111;-80
2023/03/04 07:24:31;;;;;;;24.08;7.80;;;;;;;7.88;37.94;98566.13;4469477;32;20101;-81
2023/03/04 07:26:57;;;;;;;17.20;6.75;;;;;;;7.92;38.91;98577.34;4470385;32;20084;-80
2023/03/04 07:29:22;;;;;;;17.15;7.10;;;;;;;7.73;37.15;98566.00;4470503;32;20495;-80
2023/03/04 07:31:47;;;;;;;19.02;7.12;;;;;;;7.88;37.00;98562.66;4471101;32;20404;-85
2023/03/04 07:34:13;;;;;;;17.83;6.32;;;;;;;7.15;38.12;98564.25;4471153;32;20100;-84
2023/03/04 07:36:39;;;;;;;20.70;8.18;;;;;;;7.45;37.55;98554.16;4471105;32;20085;-84
2023/03/04 07:39:06;;;;;;;20.23;7.22;;;;;;;7.59;37.50;98551.75;4471476;32;20435;-81
2023/03/04 07:41:35;;;;;;;15.80;5.85;;;;;;;7.66;37.49;98560.19;4457461;32;20127;-82
2023/03/04 07:44:00;;;;;;;17.80;7.40;;;;;;;7.47;37.04;98560.16;4471589;32;20119;-82
2023/03/04 07:46:26;;;;;;;19.30;6.75;;;;;;;7.63;37.35;98555.94;4457440;32;20435;-83
2023/03/04 07:48:52;;;;;;;18.92;6.03;;;;;;;7.44;38.00;98539.34;4471597;32;20112;-83
2023/03/04 07:51:19;;;;;;;17.08;5.72;;;;;;;7.59;37.01;98541.28;4470599;32;20097;-83
2023/03/04 07:53:47;;;;;;;18.45;5.60;;;;;;;7.75;37.14;98535.31;4458781;32;20153;-85
2023/03/04 07:56:31;;;;;;;14.87;4.57;;;;;;;8.14;36.13;98537.78;4471925;32;20088;-85
2023/03/04 07:58:57;;;;;;;13.77;4.07;;;;;;;8.14;35.82;98540.41;4444558;32;20144;-83
2023/03/04 08:01:28;;;;;;;13.70;4.45;;;;;;;7.98;35.39;98536.84;4471719;32;20092;-83
2023/03/04 08:03:53;;;;;;;15.85;4.87;;;;;;;8.45;35.05;98552.91;4471623;32;20122;-83
2023/03/04 08:06:19;;;;;;;17.42;5.07;;;;;;;7.97;35.61;98546.47;4471732;32;20104;-84
2023/03/04 08:08:46;;;;;;;14.82;4.85;;;;;;;8.22;35.81;98547.91;4469332;32;20387;-82
2023/03/04 08:11:19;;;;;;;13.80;4.25;;;;;;;7.74;35.73;98542.31;4464885;32;20096;-80
2023/03/04 08:13:45;;;;;;;12.18;4.40;;;;;;;8.06;35.51;98545.19;4464937;32;20156;-85
2023/03/04 08:16:14;;;;;;;16.67;5.65;;;;;;;7.53;36.14;98545.94;4463545;32;20180;-86
2023/03/04 08:18:43;;;;;;;19.33;6.53;;;;;;;7.27;36.92;98547.97;4464125;32;20124;-85
2023/03/04 08:21:11;;;;;;;20.05;7.12;;;;;;;7.58;36.93;98544.81;4464926;32;20104;-88
2023/03/04 08:23:36;;;;;;;16.37;6.60;;;;;;;7.32;37.90;98548.62;4468412;32;20118;-87
2023/03/04 08:26:11;;;;;;;19.15;7.45;;;;;;;7.36;38.05;98558.06;4471408;32;20081;-87
2023/03/04 08:28:37;;;;;;;21.42;7.45;;;;;;;7.08;39.19;98540.94;4457170;32;20135;-83
2023/03/04 08:31:03;;;;;;;19.20;7.25;;;;;;;7.12;38.87;98551.28;4471047;32;20061;-83
2023/03/04 08:33:28;;;;;;;17.90;7.50;;;;;;;7.02;39.02;98545.59;4457105;32;20533;-83
2023/03/04 08:35:54;;;;;;;22.98;8.23;;;;;;;6.86;39.89;98561.97;4457069;32;20149;-83
2023/03/04 08:38:19;;;;;;;22.80;8.55;;;;;;;6.79;40.16;98571.00;4471205;32;20523;-84
2023/03/04 08:40:44;;;;;;;21.17;7.65;;;;;;;6.94;40.51;98556.41;4471059;32;20372;-83
2023/03/04 08:43:10;;;;;;;23.73;9.40;;;;;;;7.25;40.30;98560.31;4471315;32;20148;-83
2023/03/04 08:45:35;;;;;;;23.48;9.13;;;;;;;7.38;40.44;98537.87;4470951;32;20108;-84
2023/03/04 08:48:01;;;;;;;22.05;8.43;;;;;;;7.28;41.12;98531.31;4471159;32;20096;-80
2023/03/04 08:50:26;;;;;;;22.33;8.25;;;;;;;7.52;40.15;98533.75;4471002;32;20089;-84
2023/03/04 08:52:52;;;;;;;21.62;8.63;;;;;;;7.53;40.16;98522.34;4457014;32;20372;-81
2023/03/04 08:55:19;;;;;;;20.55;8.18;;;;;;;7.40;39.80;98525.53;4471161;32;20088;-82
2023/03/04 08:57:44;;;;;;;21.92;8.30;;;;;;;7.65;39.60;98527.88;4456933;32;20107;-83
2023/03/04 09:00:10;;;;;;;22.92;8.77;;;;;;;7.56;39.43;98525.69;4471213;32;20128;-82
2023/03/04 09:02:36;;;;;;;25.77;9.88;;;;;;;7.66;39.59;98515.59;4456761;32;20100;-82
2023/03/04 09:05:02;;;;;;;24.95;9.35;;;;;;;7.84;39.49;98517.38;4456793;32;20392;-81
2023/03/04 09:07:27;;;;;;;23.83;10.82;;;;;;;7.41;40.33;98516.75;4470336;32;20101;-82
2023/03/04 09:09:52;;;;;;;24.83;10.52;;;;;;;7.41;40.74;98518.53;4470467;32;20093;-81
2023/03/04 09:12:18;;;;;;;25.92;10.23;;;;;;;7.58;40.55;98517.75;4470495;32;20097;-81
2023/03/04 09:14:43;;;;;;;25.62;10.35;;;;;;;7.68;40.73;98506.75;4456312;32;20174;-82
2023/03/04 09:17:09;;;;;;;24.95;10.98;;;;;;;7.68;40.90;98505.91;4467096;32;20125;-84
2023/03/04 09:19:35;;;;;;;27.25;11.10;;;;;;;7.86;40.80;98512.03;4470777;32;20129;-80
2023/03/04 09:22:01;;;;;;;28.12;11.85;;;;;;;7.89;40.62;98506.66;4470543;32;20117;-81
2023/03/04 09:24:26;;;;;;;25.70;10.60;;;;;;;7.86;40.63;98515.53;4470217;32;20085;-82
2023/03/04 09:26:52;;;;;;;29.42;11.70;;;;;;;8.17;40.21;98511.41;4470525;32;20112;-81
2023/03/04 09:29:18;;;;;;;27.83;11.95;;;;;;;8.14;40.36;98508.94;4470221;32;20092;-82
2023/03/04 09:31:43;;;;;;;31.30;11.27;;;;;;;7.95;40.93;98506.34;4456705;32;20126;-81
2023/03/04 09:34:09;;;;;;;25.50;11.10;;;;;;;7.93;40.91;98515.22;4470729;32;20111;-83
2023/03/04 09:36:34;;;;;;;28.58;11.65;;;;;;;7.93;40.92;98513.44;4456479;32;20131;-83
2023/03/04 09:39:01;;;;;;;25.42;11.65;;;;;;;8.26;40.70;98508.31;4469993;32;20105;-81
2023/03/04 09:41:47;;;;;;;25.67;11.10;;;;;;;8.00;41.06;98508.78;4470376;32;20493;-82
2023/03/04 09:44:22;;;;;;;27.23;11.60;;;;;;;8.55;39.71;98508.66;4456154;32;20100;-81
2023/03/04 09:46:48;;;;;;;26.45;11.23;;;;;;;8.62;39.62;98496.94;4456209;32;20089;-82
2023/03/04 09:49:14;;;;;;;28.12;13.13;;;;;;;8.54;39.87;98496.47;4455932;32;20132;-82
2023/03/04 09:51:45;;;;;;;25.70;11.63;;;;;;;8.56;39.69;98502.50;4456339;32;20502;-82
2023/03/04 09:54:49;;;;;;;30.12;13.10;;;;;;;8.90;39.14;98484.97;4470678;32;20084;-82
2023/03/04 09:57:40;;;;;;;31.83;14.02;;;;;;;8.89;38.99;98500.84;4470191;32;20089;-82
2023/03/04 10:00:18;;;;;;;27.92;12.37;;;;;;;8.77;39.50;98486.53;4443443;32;20445;-84
2023/03/04 10:03:20;;;;;;;28.50;12.10;;;;;;;8.94;39.24;98486.50;4450327;32;20167;-83
2023/03/04 10:05:57;;;;;;;29.12;12.40;;;;;;;9.03;39.10;98479.94;4441246;32;20160;-85
2023/03/04 10:08:37;;;;;;;25.15;11.95;;;;;;;9.50;38.78;98470.41;4447855;32;20072;-82
2023/03/04 10:11:08;;;;;;;27.70;11.95;;;;;;;9.37;38.09;98473.72;4456453;32;20093;-83
2023/03/04 10:13:39;;;;;;;30.15;13.00;;;;;;;8.66;39.33;98476.63;4455877;32;20463;-83
2023/03/04 10:16:07;;;;;;;29.70;12.63;;;;;;;8.73;39.47;98456.13;4470198;32;20080;-82
2023/03/04 10:18:36;;;;;;;33.03;13.55;;;;;;;8.49;40.35;98459.09;4470297;32;20602;-83
2023/03/04 10:21:02;;;;;;;30.10;13.35;;;;;;;8.34;40.73;98451.97;4456224;32;20531;-82
2023/03/04 10:23:28;;;;;;;32.53;13.62;;;;;;;8.38;40.71;98454.37;4456025;32;20118;-83
2023/03/04 10:25:54;;;;;;;28.85;12.98;;;;;;;8.29;40.55;98441.72;4456189;32;20119;-85
2023/03/04 10:28:26;;;;;;;29.67;12.10;;;;;;;8.72;40.38;98455.28;4456499;32;20080;-85
2023/03/04 10:31:05;;;;;;;28.58;13.40;;;;;;;8.87;39.76;98464.16;4456182;32;20105;-83
2023/03/04 10:33:36;;;;;;;28.80;13.20;;;;;;;8.53;40.46;98471.13;4456001;32;20142;-82
2023/03/04 10:36:05;;;;;;;28.52;12.88;;;;;;;8.60;40.25;98448.91;4470080;32;20139;-82
2023/03/04 10:38:34;;;;;;;31.23;11.85;;;;;;;8.94;39.66;98459.41;4470167;32;20096;-85
2023/03/04 10:41:12;;;;;;;26.70;10.60;;;;;;;8.89;39.21;98450.94;4470024;32;20424;-85
2023/03/04 10:43:38;;;;;;;27.45;11.55;;;;;;;9.00;37.18;98435.41;4455861;32;20264;-82
2023/03/04 10:46:03;;;;;;;26.67;11.07;;;;;;;8.92;37.83;98435.00;4455756;32;20101;-85
2023/03/04 10:48:30;;;;;;;28.50;11.98;;;;;;;8.87;37.70;98439.66;4442818;32;20456;-88
2023/03/04 10:51:22;;;;;;;29.02;11.20;;;;;;;9.16;37.79;98427.56;4469827;32;20109;-85
2023/03/04 10:53:51;;;;;;;28.30;12.65;;;;;;;9.13;36.79;98431.19;4443600;32;20483;-85
2023/03/04 10:56:34;;;;;;;26.10;12.13;;;;;;;9.01;38.09;98430.09;4469922;32;20124;-82
2023/03/04 10:59:31;;;;;;;26.02;11.23;;;;;;;9.41;36.51;98448.09;4469796;32;20104;-81
2023/03/04 11:01:58;;;;;;;25.67;10.32;;;;;;;9.25;36.13;98441.06;4458314;32;20485;-85
2023/03/04 11:04:24;;;;;;;27.25;11.18;;;;;;;9.12;36.65;98426.06;4469501;32;20119;-83
2023/03/04 11:06:50;;;;;;;26.42;10.70;;;;;;;9.47;35.47;98425.88;4455897;32;20084;-84
2023/03/04 11:09:23;;;;;;;26.48;10.15;;;;;;;8.92;35.80;98417.44;4469832;32;20111;-83
2023/03/04 11:11:49;;;;;;;25.60;10.98;;;;;;;8.89;35.68;98427.28;4451880;32;20391;-80
2023/03/04 11:14:23;;;;;;;27.33;11.90;;;;;;;8.88;36.32;98428.22;4452057;32;20127;-81
2023/03/04 11:16:54;;;;;;;26.40;11.40;;;;;;;9.22;36.22;98414.09;4465091;32;20143;-88
2023/03/04 11:19:21;;;;;;;26.62;10.52;;;;;;;9.43;35.24;98417.31;4461689;32;20106;-86
2023/03/04 11:21:47;;;;;;;27.33;11.25;;;;;;;8.68;36.45;98427.50;4446888;32;20109;-85
2023/03/04 11:24:16;;;;;;;26.65;11.27;;;;;;;8.79;36.47;98421.69;4455478;32;20097;-88
2023/03/04 11:26:47;;;;;;;28.73;11.43;;;;;;;8.97;36.43;98404.06;4456465;32;20504;-86
2023/03/04 11:29:25;;;;;;;28.48;11.65;;;;;;;8.91;36.67;98420.19;4457241;32;20084;-82
2023/03/04 11:32:03;;;;;;;26.97;11.43;;;;;;;8.75;37.32;98417.50;4459543;32;20135;-83